createdAt,value
2022-07-29T00:00:00.982Z,21.60
2022-07-29T00:02:28.656Z,21.70
2022-07-29T00:04:55.346Z,21.70
2022-07-29T00:07:22.063Z,21.70
2022-07-29T00:09:50.936Z,21.70
2022-07-29T00:12:21.467Z,21.70
2022-07-29T00:14:54.654Z,21.70
2022-07-29T00:17:21.307Z,21.70
2022-07-29T00:19:47.891Z,21.70
2022-07-29T00:22:14.886Z,21.70
2022-07-29T00:24:41.763Z,21.80
2022-07-29T00:27:08.335Z,21.90
2022-07-29T00:29:35.443Z,21.90
2022-07-29T00:32:03.646Z,22.00
2022-07-29T00:34:49.704Z,22.00
2022-07-29T00:37:16.479Z,22.00
2022-07-29T00:39:43.082Z,22.00
2022-07-29T00:42:10.578Z,21.80
2022-07-29T00:44:39.040Z,21.20
2022-07-29T00:47:06.012Z,20.80
2022-07-29T00:49:33.508Z,20.50
2022-07-29T00:52:02.466Z,20.40
2022-07-29T00:54:29.969Z,20.30
2022-07-29T00:56:59.157Z,20.00
2022-07-29T00:59:34.770Z,19.90
2022-07-29T01:02:03.613Z,19.90
2022-07-29T01:04:31.714Z,20.00
2022-07-29T01:06:58.708Z,20.10
2022-07-29T01:09:42.120Z,20.20
2022-07-29T01:12:19.994Z,20.30
2022-07-29T01:14:48.647Z,20.30
2022-07-29T01:17:22.329Z,20.40
2022-07-29T01:20:07.226Z,20.40
2022-07-29T01:23:01.250Z,20.40
2022-07-29T01:25:53.127Z,20.40
2022-07-29T01:28:56.248Z,20.40
2022-07-29T01:31:36.633Z,20.40
2022-07-29T01:34:16.496Z,20.50
2022-07-29T01:36:51.413Z,20.40
2022-07-29T01:39:34.562Z,20.50
2022-07-29T01:42:30.490Z,20.50
2022-07-29T01:45:00.193Z,20.50
2022-07-29T01:48:01.121Z,20.50
2022-07-29T01:50:35.323Z,20.40
2022-07-29T01:53:05.576Z,20.50
2022-07-29T01:55:41.046Z,20.40
2022-07-29T01:58:08.619Z,20.40
2022-07-29T02:00:36.862Z,20.30
2022-07-29T02:03:06.784Z,20.30
2022-07-29T02:05:35.267Z,20.30
2022-07-29T02:08:02.846Z,20.30
2022-07-29T02:10:32.123Z,20.20
2022-07-29T02:13:00.125Z,20.20
2022-07-29T02:15:29.407Z,20.20
2022-07-29T02:18:16.407Z,20.10
2022-07-29T02:20:47.881Z,20.00
2022-07-29T02:23:18.746Z,19.90
2022-07-29T02:25:45.880Z,19.90
2022-07-29T02:28:13.630Z,19.90
2022-07-29T02:30:42.859Z,19.80
2022-07-29T02:33:13.029Z,19.80
2022-07-29T02:35:42.315Z,19.70
2022-07-29T02:38:28.855Z,19.70
2022-07-29T02:40:58.208Z,19.70
2022-07-29T02:43:25.706Z,19.70
2022-07-29T02:45:55.843Z,19.70
2022-07-29T02:48:33.262Z,19.70
2022-07-29T02:51:08.147Z,19.60
2022-07-29T02:53:35.635Z,19.60
2022-07-29T02:56:13.903Z,19.50
2022-07-29T02:58:53.855Z,19.50
2022-07-29T03:01:32.423Z,19.50
2022-07-29T03:04:03.932Z,19.60
2022-07-29T03:06:37.991Z,19.50
2022-07-29T03:09:12.942Z,19.50
2022-07-29T03:11:49.805Z,19.50
2022-07-29T03:14:20.151Z,19.40
2022-07-29T03:16:48.289Z,19.40
2022-07-29T03:19:15.494Z,19.40
2022-07-29T03:21:42.129Z,19.40
2022-07-29T03:24:10.777Z,19.30
2022-07-29T03:26:37.865Z,19.30
2022-07-29T03:29:04.453Z,19.30
2022-07-29T03:31:31.987Z,19.30
2022-07-29T03:34:00.389Z,19.30
2022-07-29T03:36:27.057Z,19.20
2022-07-29T03:38:55.435Z,19.20
2022-07-29T03:41:23.418Z,19.30
2022-07-29T03:43:52.005Z,19.20
2022-07-29T03:46:20.784Z,19.20
2022-07-29T03:48:52.779Z,19.20
2022-07-29T03:51:19.558Z,19.20
2022-07-29T03:54:06.207Z,19.10
2022-07-29T03:56:38.155Z,19.00
2022-07-29T03:59:05.103Z,18.80
2022-07-29T04:01:34.745Z,18.80
2022-07-29T04:04:03.490Z,18.80
2022-07-29T04:06:37.826Z,18.70
2022-07-29T04:09:04.455Z,18.60
2022-07-29T04:11:31.181Z,18.60
2022-07-29T04:13:57.744Z,18.60
2022-07-29T04:16:24.344Z,18.60
2022-07-29T04:18:50.942Z,18.50
2022-07-29T04:21:17.489Z,18.50
2022-07-29T04:23:53.964Z,18.40
2022-07-29T04:26:21.383Z,18.50
2022-07-29T04:28:48.005Z,18.40
2022-07-29T04:31:15.687Z,18.40
2022-07-29T04:33:42.274Z,18.50
2022-07-29T04:36:28.570Z,18.30
2022-07-29T04:38:55.703Z,18.20
2022-07-29T04:41:22.253Z,18.20
2022-07-29T04:43:50.061Z,18.20
2022-07-29T04:46:16.920Z,18.20
2022-07-29T04:48:45.891Z,18.30
2022-07-29T04:51:12.649Z,18.30
2022-07-29T04:53:39.185Z,18.30
2022-07-29T04:56:05.969Z,18.30
2022-07-29T04:58:34.865Z,18.30
2022-07-29T05:01:01.529Z,18.30
2022-07-29T05:03:28.170Z,18.20
2022-07-29T05:05:54.880Z,18.30
2022-07-29T05:08:21.497Z,18.10
2022-07-29T05:10:48.145Z,18.10
2022-07-29T05:13:14.764Z,18.10
2022-07-29T05:15:41.432Z,18.20
2022-07-29T05:18:08.082Z,18.30
2022-07-29T05:20:35.506Z,18.40
2022-07-29T05:23:04.085Z,18.40
2022-07-29T05:25:44.341Z,18.40
2022-07-29T05:28:12.239Z,18.50
2022-07-29T05:30:39.019Z,18.50
2022-07-29T05:33:05.683Z,18.60
2022-07-29T05:35:32.409Z,18.70
2022-07-29T05:37:59.039Z,18.70
2022-07-29T05:40:25.791Z,18.70
2022-07-29T05:42:52.526Z,18.80
2022-07-29T05:45:19.244Z,18.90
2022-07-29T05:47:46.418Z,19.00
2022-07-29T05:50:13.350Z,19.00
2022-07-29T05:52:39.987Z,19.00
2022-07-29T05:55:06.884Z,19.10
2022-07-29T05:57:33.577Z,19.10
2022-07-29T06:00:00.168Z,19.00
2022-07-29T06:02:26.811Z,19.10
2022-07-29T06:04:54.009Z,19.20
2022-07-29T06:07:20.836Z,19.30
2022-07-29T06:09:47.436Z,19.30
2022-07-29T06:12:14.059Z,19.40
2022-07-29T06:14:40.973Z,19.50
2022-07-29T06:17:07.864Z,19.60
2022-07-29T06:19:37.833Z,19.70
2022-07-29T06:22:05.172Z,19.80
2022-07-29T06:24:31.793Z,20.00
2022-07-29T06:26:58.419Z,19.90
2022-07-29T06:29:25.302Z,20.00
2022-07-29T06:31:51.999Z,20.10
2022-07-29T06:34:19.178Z,20.10
2022-07-29T06:36:47.452Z,20.10
2022-07-29T06:39:15.024Z,20.10
2022-07-29T06:41:41.791Z,20.20
2022-07-29T06:44:08.548Z,20.30
2022-07-29T06:46:35.299Z,20.40
2022-07-29T06:49:03.153Z,20.50
2022-07-29T06:51:29.798Z,20.50
2022-07-29T06:54:02.207Z,20.60
2022-07-29T06:56:39.151Z,20.60
2022-07-29T06:59:08.055Z,20.70
2022-07-29T07:01:34.967Z,20.80
2022-07-29T07:04:01.687Z,20.90
2022-07-29T07:06:28.430Z,21.10
2022-07-29T07:08:55.114Z,21.20
2022-07-29T07:11:21.846Z,21.30
2022-07-29T07:13:48.449Z,21.50
2022-07-29T07:16:15.143Z,21.50
2022-07-29T07:18:41.767Z,21.40
2022-07-29T07:21:08.389Z,21.40
2022-07-29T07:23:34.978Z,21.50
2022-07-29T07:26:01.632Z,21.80
2022-07-29T07:28:28.210Z,21.80
2022-07-29T07:30:54.896Z,21.80
2022-07-29T07:33:21.736Z,21.90
2022-07-29T07:35:48.335Z,22.20
2022-07-29T07:38:14.945Z,22.30
2022-07-29T07:40:41.800Z,22.40
2022-07-29T07:43:08.400Z,22.40
2022-07-29T07:45:35.176Z,22.20
2022-07-29T07:48:01.908Z,22.40
2022-07-29T07:50:28.577Z,22.50
2022-07-29T07:52:58.707Z,22.70
2022-07-29T07:55:26.694Z,22.80
2022-07-29T07:57:54.164Z,23.00
2022-07-29T08:00:23.617Z,23.20
2022-07-29T08:02:51.345Z,23.40
2022-07-29T08:05:18.927Z,23.30
2022-07-29T08:07:47.388Z,23.40
2022-07-29T08:10:50.028Z,23.40
2022-07-29T08:13:16.657Z,23.50
2022-07-29T08:15:44.009Z,23.60
2022-07-29T08:18:10.676Z,23.60
2022-07-29T08:20:38.953Z,23.80
2022-07-29T08:23:07.637Z,24.00
2022-07-29T08:25:34.707Z,24.30
2022-07-29T08:28:05.396Z,24.40
2022-07-29T08:30:33.144Z,24.50
2022-07-29T08:33:00.070Z,24.50
2022-07-29T08:35:26.856Z,24.40
2022-07-29T08:37:54.115Z,24.50
2022-07-29T08:40:30.553Z,24.40
2022-07-29T08:43:00.576Z,24.70
2022-07-29T08:45:30.301Z,24.70
2022-07-29T08:47:57.361Z,24.70
2022-07-29T08:50:23.918Z,25.10
2022-07-29T08:52:52.872Z,25.20
2022-07-29T08:55:21.810Z,25.00
2022-07-29T08:57:53.413Z,25.20
2022-07-29T09:00:23.999Z,25.30
2022-07-29T09:02:57.062Z,25.70
2022-07-29T09:05:25.648Z,25.60
2022-07-29T09:07:52.993Z,25.60
2022-07-29T09:10:19.818Z,25.40
2022-07-29T09:12:46.696Z,25.20
2022-07-29T09:15:13.428Z,25.30
2022-07-29T09:17:45.474Z,25.60
2022-07-29T09:20:16.205Z,25.50
2022-07-29T09:22:43.031Z,25.60
2022-07-29T09:25:12.394Z,25.60
2022-07-29T09:27:39.125Z,25.40
2022-07-29T09:30:08.103Z,25.20
2022-07-29T09:32:54.409Z,25.20
2022-07-29T09:35:23.395Z,25.30
2022-07-29T09:37:50.757Z,25.40
2022-07-29T09:40:35.516Z,25.40
2022-07-29T09:43:10.582Z,25.50
2022-07-29T09:45:41.091Z,25.70
2022-07-29T09:48:23.348Z,26.00
2022-07-29T09:50:50.784Z,26.00
2022-07-29T09:53:34.417Z,25.90
2022-07-29T09:56:01.555Z,25.90
2022-07-29T09:58:28.646Z,26.10
2022-07-29T10:00:56.460Z,26.00
2022-07-29T10:03:23.822Z,26.20
2022-07-29T10:06:11.210Z,26.50
2022-07-29T10:08:39.051Z,26.70
2022-07-29T10:11:15.769Z,27.00
2022-07-29T10:13:43.849Z,26.80
2022-07-29T10:16:11.441Z,26.70
2022-07-29T10:18:44.662Z,26.90
2022-07-29T10:21:12.619Z,27.20
2022-07-29T10:24:00.346Z,27.60
2022-07-29T10:26:28.766Z,27.80
2022-07-29T10:28:56.885Z,27.50
2022-07-29T10:31:50.956Z,27.20
2022-07-29T10:34:37.666Z,27.30
2022-07-29T10:37:19.678Z,27.70
2022-07-29T10:40:01.460Z,27.70
2022-07-29T10:42:34.244Z,27.60
2022-07-29T10:45:04.720Z,27.70
2022-07-29T10:47:31.792Z,27.70
2022-07-29T10:50:03.811Z,27.70
2022-07-29T10:52:57.351Z,27.80
2022-07-29T10:55:41.944Z,28.00
2022-07-29T10:58:24.957Z,28.10
2022-07-29T11:00:56.316Z,28.50
2022-07-29T11:03:49.593Z,28.60
2022-07-29T11:09:20.354Z,28.40
2022-07-29T11:11:52.783Z,29.80
2022-07-29T11:15:03.640Z,30.00
2022-07-29T11:17:39.555Z,30.00
2022-07-29T11:20:51.073Z,29.90
2022-07-29T11:26:24.567Z,29.90
2022-07-29T11:29:17.972Z,30.00
2022-07-29T11:31:49.257Z,30.10
2022-07-29T11:34:33.342Z,30.40
2022-07-29T11:37:10.736Z,30.10
2022-07-29T11:39:54.176Z,30.30
2022-07-29T11:45:42.155Z,30.20
2022-07-29T11:50:53.234Z,30.40
2022-07-29T11:53:20.106Z,30.10
2022-07-29T11:55:55.349Z,30.20
2022-07-29T11:58:26.200Z,30.70
2022-07-29T12:00:55.540Z,31.00
2022-07-29T12:03:32.867Z,31.10
2022-07-29T12:06:02.443Z,31.00
2022-07-29T12:07:03.351Z,30.20
2022-07-29T12:08:29.031Z,31.00
2022-07-29T12:10:55.820Z,30.80
2022-07-29T12:13:22.970Z,30.50
2022-07-29T12:16:04.845Z,30.70
2022-07-29T12:18:32.625Z,31.00
2022-07-29T12:21:03.390Z,31.10
2022-07-29T12:23:34.815Z,31.20
2022-07-29T12:26:07.582Z,31.30
2022-07-29T12:28:40.468Z,31.00
2022-07-29T12:31:13.722Z,31.20
2022-07-29T12:33:40.564Z,31.50
2022-07-29T12:36:09.562Z,31.60
2022-07-29T12:38:41.583Z,31.80
2022-07-29T12:41:08.325Z,31.70
2022-07-29T12:43:34.961Z,31.50
2022-07-29T12:46:13.973Z,31.30
2022-07-29T12:48:43.148Z,30.80
2022-07-29T12:51:12.525Z,30.80
2022-07-29T12:53:39.957Z,31.10
2022-07-29T12:56:40.518Z,31.50
2022-07-29T12:59:18.510Z,31.80
2022-07-29T13:01:47.849Z,31.70
2022-07-29T13:04:37.457Z,31.50
2022-07-29T13:07:09.189Z,31.40
2022-07-29T13:09:42.718Z,31.50
2022-07-29T13:12:11.427Z,31.90
2022-07-29T13:14:44.148Z,31.50
2022-07-29T13:17:28.634Z,32.10
2022-07-29T13:20:13.360Z,32.30
2022-07-29T13:22:41.023Z,32.70
2022-07-29T13:25:08.031Z,32.50
2022-07-29T13:27:40.284Z,32.20
2022-07-29T13:30:09.055Z,32.20
2022-07-29T13:32:37.186Z,32.20
2022-07-29T13:35:07.226Z,32.40
2022-07-29T13:37:35.830Z,32.80
2022-07-29T13:40:04.043Z,33.10
2022-07-29T13:42:31.201Z,33.10
2022-07-29T13:44:57.964Z,33.50
2022-07-29T13:47:32.370Z,33.30
2022-07-29T13:50:00.830Z,33.60
2022-07-29T13:52:28.687Z,33.70
2022-07-29T13:54:55.309Z,34.00
2022-07-29T13:57:21.937Z,33.80
2022-07-29T13:59:53.546Z,33.70
2022-07-29T14:02:21.066Z,33.50
2022-07-29T14:04:52.256Z,33.70
2022-07-29T14:07:19.095Z,32.60
2022-07-29T14:09:45.738Z,32.30
2022-07-29T14:12:12.812Z,32.70
2022-07-29T14:14:39.555Z,32.40
2022-07-29T14:17:07.276Z,32.10
2022-07-29T14:19:39.242Z,32.00
2022-07-29T14:22:07.330Z,32.00
2022-07-29T14:24:38.960Z,31.60
2022-07-29T14:27:06.698Z,31.60
2022-07-29T14:29:38.168Z,31.60
2022-07-29T14:32:09.809Z,31.50
2022-07-29T14:34:37.581Z,31.10
2022-07-29T14:37:06.483Z,31.00
2022-07-29T14:39:36.963Z,31.00
2022-07-29T14:42:06.590Z,30.80
2022-07-29T14:44:33.195Z,30.60
2022-07-29T14:47:00.871Z,30.50
2022-07-29T14:49:28.385Z,30.60
2022-07-29T14:51:55.346Z,30.30
2022-07-29T14:54:22.222Z,30.30
2022-07-29T14:56:50.224Z,30.00
2022-07-29T14:59:17.673Z,29.30
2022-07-29T15:01:44.281Z,28.90
2022-07-29T15:04:10.965Z,28.00
2022-07-29T15:06:38.746Z,26.20
2022-07-29T15:09:05.465Z,24.90
2022-07-29T15:11:32.159Z,24.50
2022-07-29T15:14:04.759Z,24.70
2022-07-29T15:16:31.386Z,24.70
2022-07-29T15:18:58.626Z,24.80
2022-07-29T15:21:28.055Z,25.00
2022-07-29T15:23:54.734Z,25.30
2022-07-29T15:26:21.414Z,25.90
2022-07-29T15:28:49.158Z,26.70
2022-07-29T15:31:15.810Z,26.70
2022-07-29T15:33:42.473Z,26.60
2022-07-29T15:36:09.483Z,26.50
2022-07-29T15:38:36.176Z,26.60
2022-07-29T15:41:08.602Z,26.80
2022-07-29T15:43:38.203Z,26.80
2022-07-29T15:46:23.740Z,26.90
2022-07-29T15:48:50.485Z,27.10
2022-07-29T15:51:17.080Z,27.20
2022-07-29T15:53:43.691Z,26.90
2022-07-29T15:56:20.089Z,26.60
2022-07-29T15:58:46.914Z,26.60
2022-07-29T16:01:13.529Z,26.20
2022-07-29T16:03:43.115Z,26.10
2022-07-29T16:06:13.435Z,26.00
2022-07-29T16:08:39.999Z,26.10
2022-07-29T16:11:06.810Z,26.10
2022-07-29T16:13:33.441Z,26.00
2022-07-29T16:16:02.829Z,26.20
2022-07-29T16:18:30.514Z,26.30
2022-07-29T16:20:57.634Z,26.60
2022-07-29T16:23:24.598Z,26.70
2022-07-29T16:25:59.719Z,26.80
2022-07-29T16:28:28.101Z,26.70
2022-07-29T16:30:54.762Z,26.50
2022-07-29T16:33:21.407Z,26.40
2022-07-29T16:35:47.965Z,26.20
2022-07-29T16:38:14.576Z,26.00
2022-07-29T16:40:41.572Z,26.00
2022-07-29T16:43:08.849Z,26.10
2022-07-29T16:45:45.653Z,26.00
2022-07-29T16:48:14.236Z,25.90
2022-07-29T16:50:41.056Z,26.10
2022-07-29T16:53:10.400Z,26.40
2022-07-29T16:55:37.097Z,26.50
2022-07-29T16:58:03.883Z,26.40
2022-07-29T17:00:30.626Z,26.10
2022-07-29T17:02:57.267Z,25.90
2022-07-29T17:05:24.154Z,25.80
2022-07-29T17:07:50.746Z,25.90
2022-07-29T17:10:17.418Z,25.70
2022-07-29T17:12:44.130Z,25.50
2022-07-29T17:15:12.819Z,25.40
2022-07-29T17:17:55.144Z,25.50
2022-07-29T17:20:23.469Z,25.30
2022-07-29T17:22:50.106Z,25.20
2022-07-29T17:25:21.133Z,25.20
2022-07-29T17:27:50.356Z,25.20
2022-07-29T17:30:17.680Z,25.10
2022-07-29T17:32:44.286Z,25.10
2022-07-29T17:35:29.674Z,24.80
2022-07-29T17:37:56.267Z,24.70
2022-07-29T17:40:24.029Z,24.60
2022-07-29T17:42:50.627Z,24.60
2022-07-29T17:45:17.349Z,24.50
2022-07-29T17:47:44.978Z,24.40
2022-07-29T17:50:11.593Z,24.30
2022-07-29T17:52:39.003Z,24.30
2022-07-29T17:55:06.914Z,24.20
2022-07-29T17:57:33.975Z,24.20
2022-07-29T18:00:00.543Z,24.10
2022-07-29T18:02:28.417Z,24.10
2022-07-29T18:04:55.228Z,24.00
2022-07-29T18:07:21.863Z,24.00
2022-07-29T18:09:48.472Z,23.90
2022-07-29T18:12:15.309Z,23.90
2022-07-29T18:14:42.036Z,23.90
2022-07-29T18:17:08.702Z,23.80
2022-07-29T18:19:35.387Z,23.80
2022-07-29T18:22:05.408Z,23.70
2022-07-29T18:24:32.516Z,23.60
2022-07-29T18:26:59.490Z,23.40
2022-07-29T18:29:28.763Z,23.30
2022-07-29T18:31:55.557Z,23.30
2022-07-29T18:34:22.159Z,23.20
2022-07-29T18:36:48.697Z,23.30
2022-07-29T18:39:20.188Z,23.30
2022-07-29T18:41:50.754Z,23.30
2022-07-29T18:44:21.743Z,23.20
2022-07-29T18:46:49.640Z,23.10
2022-07-29T18:49:16.420Z,22.90
2022-07-29T18:51:43.341Z,22.90
2022-07-29T18:54:10.522Z,22.80
2022-07-29T18:56:37.334Z,22.40
2022-07-29T18:59:04.413Z,22.30
2022-07-29T19:01:31.797Z,22.10
2022-07-29T19:03:59.115Z,22.00
2022-07-29T19:06:26.166Z,21.90
2022-07-29T19:08:53.179Z,21.90
2022-07-29T19:11:19.831Z,21.80
2022-07-29T19:13:46.460Z,21.90
2022-07-29T19:16:14.034Z,21.90
2022-07-29T19:18:41.417Z,22.00
2022-07-29T19:21:08.089Z,21.80
2022-07-29T19:24:04.191Z,21.70
2022-07-29T19:26:21.545Z,21.70
2022-07-29T19:28:48.879Z,21.60
2022-07-29T19:31:16.027Z,21.50
2022-07-29T19:33:42.821Z,21.60
2022-07-29T19:36:09.607Z,21.70
2022-07-29T19:38:39.274Z,21.50
2022-07-29T19:41:06.264Z,21.40
2022-07-29T19:43:51.238Z,21.50
2022-07-29T19:46:22.856Z,21.50
2022-07-29T19:48:50.485Z,21.30
2022-07-29T19:51:17.722Z,21.50
2022-07-29T19:53:44.476Z,21.30
2022-07-29T19:56:11.043Z,21.40
2022-07-29T19:58:37.624Z,21.40
2022-07-29T20:01:10.031Z,21.50
2022-07-29T20:03:39.846Z,21.50
2022-07-29T20:06:07.376Z,21.50
2022-07-29T20:08:34.032Z,21.40
2022-07-29T20:11:00.705Z,21.20
2022-07-29T20:13:27.413Z,21.10
2022-07-29T20:15:54.099Z,21.10
2022-07-29T20:18:20.717Z,21.10
2022-07-29T20:20:49.080Z,21.10
2022-07-29T20:23:16.403Z,21.10
2022-07-29T20:25:43.191Z,21.10
2022-07-29T20:28:09.839Z,21.20
2022-07-29T20:30:38.563Z,21.10
2022-07-29T20:33:05.685Z,21.10
2022-07-29T20:35:32.527Z,21.10
2022-07-29T20:38:00.275Z,21.20
2022-07-29T20:40:27.530Z,21.20
2022-07-29T20:42:55.160Z,21.10
2022-07-29T20:45:23.293Z,21.10
2022-07-29T20:47:51.574Z,21.10
2022-07-29T20:50:18.953Z,21.10
2022-07-29T20:52:45.652Z,21.10
2022-07-29T20:55:12.525Z,21.00
2022-07-29T20:57:39.974Z,21.10
2022-07-29T21:00:07.787Z,21.00
2022-07-29T21:02:34.736Z,21.10
2022-07-29T21:05:01.443Z,21.10
2022-07-29T21:07:28.082Z,21.20
2022-07-29T21:09:54.631Z,21.10
2022-07-29T21:12:21.333Z,21.00
2022-07-29T21:14:48.062Z,21.10
2022-07-29T21:17:16.178Z,21.10
2022-07-29T21:19:43.078Z,21.10
2022-07-29T21:22:10.034Z,21.30
2022-07-29T21:24:36.653Z,21.30
2022-07-29T21:27:22.164Z,21.30
2022-07-29T21:29:49.301Z,21.20
2022-07-29T21:32:29.949Z,21.20
2022-07-29T21:34:57.999Z,21.20
2022-07-29T21:37:24.786Z,21.10
2022-07-29T21:39:51.470Z,21.10
2022-07-29T21:42:18.275Z,21.00
2022-07-29T21:44:45.150Z,20.70
2022-07-29T21:47:11.879Z,20.60
2022-07-29T21:49:38.681Z,20.60
2022-07-29T21:52:06.108Z,20.70
2022-07-29T21:54:34.757Z,20.60
2022-07-29T21:57:01.349Z,20.60
2022-07-29T21:59:28.018Z,20.60
2022-07-29T22:01:54.699Z,20.60
2022-07-29T22:04:22.092Z,20.50
2022-07-29T22:06:48.723Z,20.40
2022-07-29T22:09:15.334Z,20.50
2022-07-29T22:11:42.349Z,20.40
2022-07-29T22:14:09.151Z,20.40
2022-07-29T22:16:35.913Z,20.40
2022-07-29T22:19:03.801Z,20.30
2022-07-29T22:21:30.730Z,20.20
2022-07-29T22:23:57.661Z,20.30
2022-07-29T22:26:24.268Z,20.30
2022-07-29T22:28:50.862Z,20.30
2022-07-29T22:31:17.646Z,20.30
2022-07-29T22:33:44.287Z,20.30
2022-07-29T22:36:10.947Z,20.30
2022-07-29T22:38:37.681Z,20.30
2022-07-29T22:41:04.282Z,20.40
2022-07-29T22:43:30.910Z,20.40
2022-07-29T22:45:57.665Z,20.30
2022-07-29T22:48:24.312Z,20.20
2022-07-29T22:50:50.925Z,20.30
2022-07-29T22:53:17.514Z,20.30
2022-07-29T22:55:45.434Z,20.30
2022-07-29T22:58:12.365Z,20.20
2022-07-29T23:00:39.033Z,20.20
2022-07-29T23:03:05.623Z,20.10
2022-07-29T23:05:32.593Z,20.00
2022-07-29T23:07:59.410Z,20.00
2022-07-29T23:10:26.057Z,20.00
2022-07-29T23:12:52.758Z,20.00
2022-07-29T23:15:19.410Z,19.90
2022-07-29T23:17:46.151Z,19.80
2022-07-29T23:20:14.762Z,19.80
2022-07-29T23:22:41.574Z,19.80
2022-07-29T23:25:08.514Z,19.80
2022-07-29T23:27:35.158Z,19.80
2022-07-29T23:30:02.541Z,19.60
2022-07-29T23:32:29.201Z,19.60
2022-07-29T23:34:55.766Z,19.50
2022-07-29T23:37:22.523Z,19.70
2022-07-29T23:39:49.113Z,19.70
2022-07-29T23:42:15.724Z,19.80
2022-07-29T23:44:42.526Z,19.80
2022-07-29T23:47:09.130Z,19.80
2022-07-29T23:49:35.782Z,19.90
2022-07-29T23:52:02.510Z,20.00
2022-07-29T23:54:29.074Z,20.00
2022-07-29T23:56:57.559Z,19.90
2022-07-29T23:59:24.645Z,19.90
